createdAt,value
2017-03-25T00:00:12.933Z,6.66
2017-03-25T00:00:53.449Z,6.59
2017-03-25T00:01:33.979Z,6.62
2017-03-25T00:02:14.509Z,6.61
2017-03-25T00:02:55.024Z,6.61
2017-03-25T00:03:35.530Z,6.58
2017-03-25T00:04:16.032Z,6.59
2017-03-25T00:04:56.544Z,6.56
2017-03-25T00:05:37.060Z,6.54
2017-03-25T00:06:17.563Z,6.55
2017-03-25T00:06:58.100Z,6.56
2017-03-25T00:07:38.630Z,6.58
2017-03-25T00:08:19.150Z,6.52
2017-03-25T00:08:59.702Z,6.56
2017-03-25T00:09:40.200Z,6.49
2017-03-25T00:10:20.726Z,6.52
2017-03-25T00:11:01.259Z,6.51
2017-03-25T00:11:41.783Z,6.55
2017-03-25T00:12:22.297Z,6.46
2017-03-25T00:13:02.842Z,6.49
2017-03-25T00:13:43.374Z,6.48
2017-03-25T00:14:23.901Z,6.41
2017-03-25T00:15:04.423Z,6.48
2017-03-25T00:15:44.947Z,6.38
2017-03-25T00:16:25.473Z,6.36
2017-03-25T00:17:05.983Z,6.43
2017-03-25T00:17:46.496Z,6.38
2017-03-25T00:18:27.009Z,6.41
2017-03-25T00:19:07.525Z,6.4
2017-03-25T00:19:48.051Z,6.37
2017-03-25T00:20:28.575Z,6.37
2017-03-25T00:21:09.091Z,6.33
2017-03-25T00:21:49.620Z,6.33
2017-03-25T00:22:30.143Z,6.31
2017-03-25T00:23:10.655Z,6.33
2017-03-25T00:23:51.166Z,6.27
2017-03-25T00:24:31.699Z,6.36
2017-03-25T00:25:12.227Z,6.3
2017-03-25T00:25:52.758Z,6.34
2017-03-25T00:26:33.290Z,6.25
2017-03-25T00:27:13.798Z,6.3
2017-03-25T00:27:54.320Z,6.21
2017-03-25T00:28:34.840Z,6.27
2017-03-25T00:29:15.368Z,6.28
2017-03-25T00:29:55.895Z,6.21
2017-03-25T00:30:36.445Z,6.27
2017-03-25T00:31:16.960Z,6.18
2017-03-25T00:31:57.486Z,6.18
2017-03-25T00:32:38.011Z,6.21
2017-03-25T00:33:18.525Z,6.18
2017-03-25T00:33:59.044Z,6.15
2017-03-25T00:34:39.571Z,6.11
2017-03-25T00:35:20.109Z,6.09
2017-03-25T00:36:00.649Z,6.08
2017-03-25T00:36:41.157Z,6.12
2017-03-25T00:37:21.676Z,6.14
2017-03-25T00:38:02.167Z,6.12
2017-03-25T00:38:42.681Z,6.11
2017-03-25T00:39:23.218Z,6.01
2017-03-25T00:40:03.741Z,6.08
2017-03-25T00:40:44.236Z,6.14
2017-03-25T00:41:24.757Z,5.94
2017-03-25T00:42:05.297Z,6.04
2017-03-25T00:42:45.825Z,5.96
2017-03-25T00:43:26.344Z,5.94
2017-03-25T00:44:06.884Z,6
2017-03-25T00:44:47.389Z,5.97
2017-03-25T00:45:27.883Z,6
2017-03-25T00:46:08.408Z,6.04
2017-03-25T00:46:48.938Z,5.97
2017-03-25T00:47:29.458Z,5.96
2017-03-25T00:48:09.981Z,5.99
2017-03-25T00:48:50.500Z,5.97
2017-03-25T00:49:31.013Z,5.93
2017-03-25T00:50:11.528Z,5.96
2017-03-25T00:50:52.056Z,6
2017-03-25T00:51:32.586Z,5.91
2017-03-25T00:52:13.108Z,5.9
2017-03-25T00:52:53.624Z,5.93
2017-03-25T00:53:34.150Z,5.85
2017-03-25T00:54:14.681Z,5.86
2017-03-25T00:54:55.201Z,5.89
2017-03-25T00:55:35.708Z,5.85
2017-03-25T00:56:16.221Z,5.85
2017-03-25T00:56:56.725Z,5.85
2017-03-25T00:57:37.244Z,5.86
2017-03-25T00:58:17.753Z,5.83
2017-03-25T00:58:58.276Z,5.86
2017-03-25T00:59:38.783Z,5.78
2017-03-25T01:00:19.297Z,5.78
2017-03-25T01:00:59.822Z,5.79
2017-03-25T01:01:40.339Z,5.75
2017-03-25T01:02:20.854Z,5.75
2017-03-25T01:03:01.359Z,5.81
2017-03-25T01:03:41.870Z,5.72
2017-03-25T01:04:22.374Z,5.78
2017-03-25T01:05:02.889Z,5.68
2017-03-25T01:05:43.390Z,5.75
2017-03-25T01:06:23.896Z,5.75
2017-03-25T01:07:04.410Z,5.68
2017-03-25T01:07:44.921Z,5.64
2017-03-25T01:08:25.437Z,5.64
2017-03-25T01:09:05.955Z,5.6
2017-03-25T01:09:46.475Z,5.75
2017-03-25T01:10:26.999Z,5.67
2017-03-25T01:11:07.522Z,5.64
2017-03-25T01:11:48.046Z,5.61
2017-03-25T01:12:28.572Z,5.58
2017-03-25T01:13:09.099Z,5.68
2017-03-25T01:13:49.607Z,5.6
2017-03-25T01:14:30.123Z,5.6
2017-03-25T01:15:10.650Z,5.57
2017-03-25T01:15:51.161Z,5.6
2017-03-25T01:16:31.718Z,5.63
2017-03-25T01:17:12.236Z,5.61
2017-03-25T01:17:52.767Z,5.57
2017-03-25T01:18:33.304Z,5.61
2017-03-25T01:19:13.826Z,5.56
2017-03-25T01:19:54.358Z,5.56
2017-03-25T01:20:34.887Z,5.53
2017-03-25T01:21:15.418Z,5.64
2017-03-25T01:21:55.948Z,5.51
2017-03-25T01:22:36.489Z,5.58
2017-03-25T01:23:17.016Z,5.58
2017-03-25T01:23:57.545Z,5.54
2017-03-25T01:24:38.077Z,5.58
2017-03-25T01:25:18.608Z,5.45
2017-03-25T01:25:59.128Z,5.56
2017-03-25T01:26:39.653Z,5.46
2017-03-25T01:27:20.178Z,5.54
2017-03-25T01:28:00.693Z,5.57
2017-03-25T01:28:41.224Z,5.38
2017-03-25T01:29:21.751Z,5.56
2017-03-25T01:30:02.272Z,5.6
2017-03-25T01:30:42.803Z,5.57
2017-03-25T01:31:23.307Z,5.58
2017-03-25T01:32:03.825Z,5.42
2017-03-25T01:32:44.333Z,5.51
2017-03-25T01:33:24.855Z,5.42
2017-03-25T01:34:05.379Z,5.46
2017-03-25T01:34:45.912Z,5.48
2017-03-25T01:35:26.429Z,5.51
2017-03-25T01:36:06.962Z,5.49
2017-03-25T01:36:47.491Z,5.48
2017-03-25T01:37:28.003Z,5.54
2017-03-25T01:38:08.520Z,5.48
2017-03-25T01:38:49.025Z,5.46
2017-03-25T01:39:29.529Z,5.45
2017-03-25T01:40:10.046Z,5.49
2017-03-25T01:40:50.581Z,5.49
2017-03-25T01:41:31.114Z,5.45
2017-03-25T01:42:11.642Z,5.42
2017-03-25T01:42:52.158Z,5.45
2017-03-25T01:43:32.683Z,5.43
2017-03-25T01:44:13.217Z,5.42
2017-03-25T01:44:53.756Z,5.39
2017-03-25T01:45:34.271Z,5.4
2017-03-25T01:46:14.797Z,5.39
2017-03-25T01:46:55.336Z,5.45
2017-03-25T01:47:35.864Z,5.35
2017-03-25T01:48:16.392Z,5.35
2017-03-25T01:48:56.922Z,5.28
2017-03-25T01:49:37.451Z,5.31
2017-03-25T01:50:17.978Z,5.3
2017-03-25T01:50:58.511Z,5.35
2017-03-25T01:51:39.033Z,5.28
2017-03-25T01:52:19.556Z,5.42
2017-03-25T01:53:00.075Z,5.28
2017-03-25T01:53:40.604Z,5.42
2017-03-25T01:54:21.132Z,5.28
2017-03-25T01:55:01.655Z,5.31
2017-03-25T01:55:42.196Z,5.28
2017-03-25T01:56:22.706Z,5.3
2017-03-25T01:57:03.226Z,5.31
2017-03-25T01:57:43.773Z,5.25
2017-03-25T01:58:24.273Z,5.25
2017-03-25T01:59:04.794Z,5.27
2017-03-25T01:59:45.312Z,5.22
2017-03-25T02:00:25.808Z,5.28
2017-03-25T02:01:06.320Z,5.28
2017-03-25T02:01:46.833Z,5.21
2017-03-25T02:02:27.364Z,5.31
2017-03-25T02:03:07.876Z,5.22
2017-03-25T02:03:48.399Z,5.21
2017-03-25T02:04:28.921Z,5.21
2017-03-25T02:05:09.425Z,5.22
2017-03-25T02:05:49.937Z,5.2
2017-03-25T02:06:30.480Z,5.22
2017-03-25T02:07:11.003Z,5.15
2017-03-25T02:07:51.516Z,5.2
2017-03-25T02:08:32.031Z,5.25
2017-03-25T02:09:12.563Z,5.2
2017-03-25T02:09:53.100Z,5.27
2017-03-25T02:10:33.607Z,5.18
2017-03-25T02:11:14.137Z,5.17
2017-03-25T02:11:54.663Z,5.22
2017-03-25T02:12:35.174Z,5.21
2017-03-25T02:13:15.716Z,5.12
2017-03-25T02:13:56.239Z,5.17
2017-03-25T02:14:36.778Z,5.15
2017-03-25T02:15:17.315Z,5.12
2017-03-25T02:15:57.844Z,5.24
2017-03-25T02:16:38.362Z,5.13
2017-03-25T02:17:18.901Z,5.17
2017-03-25T02:17:59.401Z,5.17
2017-03-25T02:18:39.918Z,5.15
2017-03-25T02:19:20.449Z,5.12
2017-03-25T02:20:00.959Z,5.17
2017-03-25T02:20:41.491Z,5.15
2017-03-25T02:21:22.006Z,5.18
2017-03-25T02:22:02.527Z,5.22
2017-03-25T02:22:43.051Z,5.12
2017-03-25T02:23:23.559Z,5.18
2017-03-25T02:24:04.083Z,5.12
2017-03-25T02:24:44.616Z,5.1
2017-03-25T02:25:25.139Z,5.1
2017-03-25T02:26:05.670Z,5.13
2017-03-25T02:28:19.891Z,5.22
2017-03-25T02:29:00.404Z,5.12
2017-03-25T02:29:40.932Z,5.24
2017-03-25T02:30:21.448Z,5.13
2017-03-25T02:31:01.975Z,5.18
2017-03-25T02:31:42.492Z,5.17
2017-03-25T02:32:23.014Z,5.15
2017-03-25T02:33:03.524Z,5.09
2017-03-25T02:33:44.047Z,5.12
2017-03-25T02:34:24.563Z,5.13
2017-03-25T02:35:05.092Z,5.17
2017-03-25T02:35:45.608Z,5.2
2017-03-25T02:36:26.137Z,5.3
2017-03-25T02:37:06.659Z,5.25
2017-03-25T02:37:47.187Z,5.27
2017-03-25T02:38:27.727Z,5.36
2017-03-25T02:39:08.288Z,5.3
2017-03-25T02:39:48.818Z,5.31
2017-03-25T02:40:29.343Z,5.42
2017-03-25T02:41:09.874Z,5.38
2017-03-25T02:41:50.402Z,5.27
2017-03-25T02:42:30.930Z,5.43
2017-03-25T02:43:11.447Z,5.43
2017-03-25T02:43:51.967Z,5.49
2017-03-25T02:44:32.494Z,5.48
2017-03-25T02:45:13.033Z,5.51
2017-03-25T02:45:53.557Z,5.39
2017-03-25T02:46:34.063Z,5.56
2017-03-25T02:47:14.592Z,5.6
2017-03-25T02:47:55.076Z,5.49
2017-03-25T02:48:35.577Z,5.49
2017-03-25T02:49:16.111Z,5.68
2017-03-25T02:49:56.621Z,5.64
2017-03-25T02:50:37.143Z,5.64
2017-03-25T02:51:17.651Z,5.71
2017-03-25T02:51:58.182Z,5.78
2017-03-25T02:52:38.676Z,5.75
2017-03-25T02:53:19.191Z,5.72
2017-03-25T02:53:59.707Z,5.71
2017-03-25T02:54:40.233Z,5.83
2017-03-25T02:55:20.761Z,5.85
2017-03-25T02:56:01.282Z,5.81
2017-03-25T02:56:41.784Z,5.78
2017-03-25T02:57:22.305Z,5.83
2017-03-25T02:58:02.824Z,5.85
2017-03-25T02:58:43.361Z,5.83
2017-03-25T02:59:23.900Z,5.85
2017-03-25T03:00:04.434Z,5.85
2017-03-25T03:00:44.976Z,5.83
2017-03-25T03:01:25.503Z,5.96
2017-03-25T03:02:06.013Z,5.94
2017-03-25T03:02:46.536Z,5.93
2017-03-25T03:03:27.057Z,5.94
2017-03-25T03:04:07.566Z,5.94
2017-03-25T03:04:48.079Z,5.9
2017-03-25T03:05:28.582Z,5.96
2017-03-25T03:06:09.110Z,5.9
2017-03-25T03:06:49.627Z,5.85
2017-03-25T03:07:30.153Z,5.85
2017-03-25T03:08:10.662Z,5.81
2017-03-25T03:08:51.194Z,5.85
2017-03-25T03:09:31.704Z,5.82
2017-03-25T03:10:12.210Z,5.86
2017-03-25T03:10:52.726Z,5.97
2017-03-25T03:11:33.236Z,5.97
2017-03-25T03:12:13.766Z,5.86
2017-03-25T03:12:54.290Z,5.82
2017-03-25T03:13:34.819Z,5.85
2017-03-25T03:14:15.338Z,5.68
2017-03-25T03:14:55.863Z,5.68
2017-03-25T03:15:36.392Z,5.68
2017-03-25T03:16:16.906Z,5.72
2017-03-25T03:16:57.432Z,5.68
2017-03-25T03:17:37.963Z,5.63
2017-03-25T03:18:18.469Z,5.67
2017-03-25T03:18:58.983Z,5.64
2017-03-25T03:19:39.504Z,5.6
2017-03-25T03:20:20.028Z,5.61
2017-03-25T03:21:00.617Z,5.57
2017-03-25T03:21:41.114Z,5.64
2017-03-25T03:22:21.642Z,5.51
2017-03-25T03:23:02.148Z,5.45
2017-03-25T03:23:42.677Z,5.58
2017-03-25T03:24:23.185Z,5.58
2017-03-25T03:25:03.693Z,5.49
2017-03-25T03:25:44.203Z,5.4
2017-03-25T03:26:24.718Z,5.51
2017-03-25T03:27:05.204Z,5.48
2017-03-25T03:27:45.721Z,5.53
2017-03-25T03:28:26.246Z,5.48
2017-03-25T03:29:06.755Z,5.49
2017-03-25T03:29:47.263Z,5.46
2017-03-25T03:30:27.778Z,5.48
2017-03-25T03:31:08.312Z,5.48
2017-03-25T03:31:48.826Z,5.48
2017-03-25T03:32:29.315Z,5.48
2017-03-25T03:33:09.833Z,5.48
2017-03-25T03:33:50.332Z,5.49
2017-03-25T03:34:30.857Z,5.45
2017-03-25T03:35:11.369Z,5.42
2017-03-25T03:35:51.894Z,5.39
2017-03-25T03:36:32.424Z,5.39
2017-03-25T03:37:12.942Z,5.39
2017-03-25T03:37:53.493Z,5.33
2017-03-25T03:38:34.018Z,5.35
2017-03-25T03:39:14.533Z,5.38
2017-03-25T03:39:55.048Z,5.39
2017-03-25T03:40:35.569Z,5.38
2017-03-25T03:41:16.128Z,5.35
2017-03-25T03:41:56.672Z,5.33
2017-03-25T03:42:37.192Z,5.28
2017-03-25T03:43:17.682Z,5.25
2017-03-25T03:43:58.201Z,5.27
2017-03-25T03:44:38.730Z,5.28
2017-03-25T03:45:19.256Z,5.28
2017-03-25T03:45:59.769Z,5.25
2017-03-25T03:46:40.305Z,5.22
2017-03-25T03:47:20.829Z,5.2
2017-03-25T03:48:01.337Z,5.17
2017-03-25T03:48:41.841Z,5.27
2017-03-25T03:49:22.360Z,5.2
2017-03-25T03:50:02.881Z,5.15
2017-03-25T03:50:43.401Z,5.2
2017-03-25T03:51:23.922Z,5.13
2017-03-25T03:52:04.439Z,5.17
2017-03-25T03:52:44.968Z,5.07
2017-03-25T03:53:25.495Z,5.03
2017-03-25T03:54:06.019Z,5.09
2017-03-25T03:54:46.544Z,5.03
2017-03-25T03:55:27.072Z,5.07
2017-03-25T03:56:07.607Z,5.06
2017-03-25T03:56:48.128Z,4.96
2017-03-25T03:57:28.660Z,4.94
2017-03-25T03:58:09.178Z,4.92
2017-03-25T03:58:49.681Z,4.94
2017-03-25T03:59:30.193Z,4.91
2017-03-25T04:00:10.699Z,5.03
2017-03-25T04:00:51.202Z,5.06
2017-03-25T04:01:31.720Z,5.02
2017-03-25T04:02:12.237Z,4.89
2017-03-25T04:02:52.758Z,4.97
2017-03-25T04:03:33.252Z,4.91
2017-03-25T04:04:13.776Z,4.91
2017-03-25T04:04:54.295Z,4.91
2017-03-25T04:05:34.819Z,4.94
2017-03-25T04:06:15.323Z,4.86
2017-03-25T04:06:55.850Z,4.86
2017-03-25T04:07:36.348Z,4.85
2017-03-25T04:08:16.852Z,4.84
2017-03-25T04:08:57.380Z,4.82
2017-03-25T04:09:37.893Z,4.89
2017-03-25T04:10:18.401Z,4.8
2017-03-25T04:10:58.910Z,4.85
2017-03-25T04:11:39.415Z,4.77
2017-03-25T04:12:19.952Z,4.75
2017-03-25T04:13:00.453Z,4.75
2017-03-25T04:13:40.971Z,4.82
2017-03-25T04:14:21.517Z,4.78
2017-03-25T04:15:02.012Z,4.8
2017-03-25T04:15:42.514Z,4.82
2017-03-25T04:16:23.021Z,4.78
2017-03-25T04:17:03.542Z,4.72
2017-03-25T04:17:44.076Z,4.72
2017-03-25T04:18:24.597Z,4.82
2017-03-25T04:19:05.134Z,4.77
2017-03-25T04:19:45.660Z,4.75
2017-03-25T04:20:26.177Z,4.66
2017-03-25T04:21:06.710Z,4.69
2017-03-25T04:21:47.243Z,4.72
2017-03-25T04:22:27.758Z,4.67
2017-03-25T04:23:08.281Z,4.69
2017-03-25T04:23:48.797Z,4.67
2017-03-25T04:24:29.314Z,4.67
2017-03-25T04:25:09.833Z,4.66
2017-03-25T04:25:50.357Z,4.62
2017-03-25T04:26:30.874Z,4.67
2017-03-25T04:27:11.388Z,4.66
2017-03-25T04:27:51.895Z,4.55
2017-03-25T04:28:32.389Z,4.6
2017-03-25T04:29:12.955Z,4.55
2017-03-25T04:29:53.512Z,4.54
2017-03-25T04:30:34.062Z,4.54
2017-03-25T04:31:14.604Z,4.58
2017-03-25T04:31:55.067Z,4.55
2017-03-25T04:32:35.604Z,4.59
2017-03-25T04:33:16.139Z,4.5
2017-03-25T04:33:56.696Z,4.58
2017-03-25T04:34:37.239Z,4.58
2017-03-25T04:35:17.846Z,4.48
2017-03-25T04:35:58.298Z,4.48
2017-03-25T04:36:38.787Z,4.51
2017-03-25T04:37:19.306Z,4.48
2017-03-25T04:37:59.820Z,4.48
2017-03-25T04:38:40.302Z,4.54
2017-03-25T04:39:20.813Z,4.47
2017-03-25T04:40:01.348Z,4.45
2017-03-25T04:40:41.829Z,4.47
2017-03-25T04:41:22.360Z,4.55
2017-03-25T04:42:02.841Z,4.59
2017-03-25T04:42:43.360Z,4.47
2017-03-25T04:43:23.978Z,4.47
2017-03-25T04:44:04.418Z,4.52
2017-03-25T04:44:44.964Z,4.45
2017-03-25T04:45:25.444Z,4.51
2017-03-25T04:46:05.956Z,4.51
2017-03-25T04:46:46.483Z,4.33
2017-03-25T04:47:26.990Z,4.33
2017-03-25T04:48:07.512Z,4.42
2017-03-25T04:48:48.027Z,4.33
2017-03-25T04:49:28.570Z,4.4
2017-03-25T04:50:09.047Z,4.41
2017-03-25T04:50:49.549Z,4.48
2017-03-25T04:51:30.076Z,4.42
2017-03-25T04:52:10.558Z,4.42
2017-03-25T04:52:51.111Z,4.45
2017-03-25T04:53:31.633Z,4.41
2017-03-25T04:54:12.094Z,4.45
2017-03-25T04:54:52.663Z,4.42
2017-03-25T04:55:33.203Z,4.42
2017-03-25T04:56:13.735Z,4.4
2017-03-25T04:56:54.292Z,4.33
2017-03-25T04:57:34.818Z,4.36
2017-03-25T04:58:15.378Z,4.4
2017-03-25T04:58:55.975Z,4.34
2017-03-25T04:59:36.498Z,4.32
2017-03-25T05:00:17.036Z,4.45
2017-03-25T05:00:57.546Z,4.41
2017-03-25T05:01:38.073Z,4.37
2017-03-25T05:02:18.598Z,4.37
2017-03-25T05:02:59.127Z,4.34
2017-03-25T05:03:39.653Z,4.34
2017-03-25T05:04:20.186Z,4.34
2017-03-25T05:05:00.717Z,4.36
2017-03-25T05:05:41.247Z,4.4
2017-03-25T05:06:21.785Z,4.37
2017-03-25T05:07:02.299Z,4.37
2017-03-25T05:07:42.813Z,4.32
2017-03-25T05:08:23.338Z,4.33
2017-03-25T05:09:03.867Z,4.36
2017-03-25T05:09:44.390Z,4.33
2017-03-25T05:10:24.917Z,4.33
2017-03-25T05:11:05.432Z,4.36
2017-03-25T05:11:45.944Z,4.32
2017-03-25T05:12:26.475Z,4.36
2017-03-25T05:13:07.030Z,4.34
2017-03-25T05:13:47.525Z,4.26
2017-03-25T05:14:28.070Z,4.36
2017-03-25T05:15:08.590Z,4.33
2017-03-25T05:15:49.105Z,4.29
2017-03-25T05:16:29.638Z,4.22
2017-03-25T05:17:10.166Z,4.27
2017-03-25T05:17:50.673Z,4.24
2017-03-25T05:18:31.180Z,4.24
2017-03-25T05:19:11.709Z,4.27
2017-03-25T05:19:52.242Z,4.26
2017-03-25T05:20:32.776Z,4.15
2017-03-25T05:21:13.283Z,4.36
2017-03-25T05:21:53.799Z,4.27
2017-03-25T05:22:34.323Z,4.3
2017-03-25T05:23:14.839Z,4.29
2017-03-25T05:23:55.366Z,4.29
2017-03-25T05:24:35.897Z,4.27
2017-03-25T05:25:16.434Z,4.26
2017-03-25T05:25:56.977Z,4.26
2017-03-25T05:26:37.511Z,4.23
2017-03-25T05:27:18.039Z,4.18
2017-03-25T05:27:58.581Z,4.15
2017-03-25T05:28:39.083Z,4.24
2017-03-25T05:29:19.624Z,4.29
2017-03-25T05:30:00.152Z,4.23
2017-03-25T05:30:40.670Z,4.26
2017-03-25T05:31:21.167Z,4.23
2017-03-25T05:32:01.683Z,4.2
2017-03-25T05:32:42.205Z,4.26
2017-03-25T05:33:22.736Z,4.26
2017-03-25T05:34:03.254Z,4.2
2017-03-25T05:34:43.763Z,4.3
2017-03-25T05:35:24.280Z,4.27
2017-03-25T05:36:04.796Z,4.26
2017-03-25T05:36:45.302Z,4.29
2017-03-25T05:37:25.816Z,4.27
2017-03-25T05:38:06.338Z,4.3
2017-03-25T05:38:46.864Z,4.37
2017-03-25T05:39:27.382Z,4.4
2017-03-25T05:40:07.880Z,4.34
2017-03-25T05:40:48.403Z,4.36
2017-03-25T05:41:28.912Z,4.32
2017-03-25T05:42:09.421Z,4.37
2017-03-25T05:42:49.954Z,4.45
2017-03-25T05:43:30.708Z,4.34
2017-03-25T05:44:11.234Z,4.42
2017-03-25T05:44:51.769Z,4.45
2017-03-25T05:45:32.304Z,4.48
2017-03-25T05:46:12.808Z,4.54
2017-03-25T05:46:53.318Z,4.54
2017-03-25T05:47:33.829Z,4.58
2017-03-25T05:48:14.359Z,4.63
2017-03-25T05:48:54.890Z,4.66
2017-03-25T05:49:35.419Z,4.63
2017-03-25T05:50:15.951Z,4.67
2017-03-25T05:50:56.478Z,4.7
2017-03-25T05:51:37.012Z,4.67
2017-03-25T05:52:17.560Z,4.8
2017-03-25T05:52:58.100Z,4.75
2017-03-25T05:53:38.614Z,4.92
2017-03-25T05:54:19.134Z,4.96
2017-03-25T05:54:59.666Z,4.94
2017-03-25T05:55:40.195Z,4.88
2017-03-25T05:56:20.722Z,4.94
2017-03-25T05:57:01.255Z,4.92
2017-03-25T05:57:41.780Z,4.96
2017-03-25T05:58:22.312Z,5
2017-03-25T05:59:02.838Z,4.97
2017-03-25T05:59:43.367Z,4.99
2017-03-25T06:00:23.897Z,4.96
2017-03-25T06:01:04.412Z,4.96
2017-03-25T06:01:44.937Z,4.89
2017-03-25T06:02:25.506Z,4.94
2017-03-25T06:03:06.034Z,5
2017-03-25T06:03:46.557Z,4.97
2017-03-25T06:04:27.059Z,5.02
2017-03-25T06:05:07.592Z,4.94
2017-03-25T06:05:48.126Z,4.94
2017-03-25T06:06:28.659Z,4.94
2017-03-25T06:07:09.235Z,4.94
2017-03-25T06:07:49.715Z,4.97
2017-03-25T06:08:30.223Z,4.96
2017-03-25T06:09:10.748Z,4.97
2017-03-25T06:09:51.317Z,5.02
2017-03-25T06:10:31.822Z,5.02
2017-03-25T06:11:12.400Z,4.97
2017-03-25T06:11:52.960Z,5.02
2017-03-25T06:12:33.499Z,5.03
2017-03-25T06:13:14.024Z,4.94
2017-03-25T06:13:54.540Z,5.02
2017-03-25T06:14:35.065Z,5.04
2017-03-25T06:15:15.598Z,5.04
2017-03-25T06:15:56.138Z,5.02
2017-03-25T06:16:36.635Z,5.06
2017-03-25T06:17:17.163Z,5.04
2017-03-25T06:17:57.675Z,5.09
2017-03-25T06:18:38.196Z,5.1
2017-03-25T06:19:18.726Z,5.06
2017-03-25T06:19:59.254Z,5.09
2017-03-25T06:20:39.775Z,5.07
2017-03-25T06:21:20.288Z,5.09
2017-03-25T06:22:00.810Z,4.99
2017-03-25T06:22:41.314Z,5.12
2017-03-25T06:23:21.842Z,5.07
2017-03-25T06:24:02.359Z,5.09
2017-03-25T06:24:42.862Z,5.09
2017-03-25T06:25:23.386Z,5.04
2017-03-25T06:26:03.929Z,5.07
2017-03-25T06:26:44.453Z,5.07
2017-03-25T06:27:24.969Z,5.02
2017-03-25T06:28:05.508Z,5.06
2017-03-25T06:28:46.031Z,5.07
2017-03-25T06:29:26.567Z,5.09
2017-03-25T06:30:07.080Z,5.18
2017-03-25T06:30:47.605Z,5.18
2017-03-25T06:31:28.134Z,5.17
2017-03-25T06:32:08.665Z,5.17
2017-03-25T06:32:49.184Z,5.15
2017-03-25T06:33:29.697Z,5.2
2017-03-25T06:34:10.211Z,5.18
2017-03-25T06:34:50.732Z,5.17
2017-03-25T06:35:31.319Z,5.18
2017-03-25T06:36:11.983Z,5.27
2017-03-25T06:36:52.484Z,5.25
2017-03-25T06:37:33.007Z,5.22
2017-03-25T06:38:13.517Z,5.17
2017-03-25T06:38:54.021Z,5.2
2017-03-25T06:39:34.527Z,5.25
2017-03-25T06:40:15.050Z,5.27
2017-03-25T06:40:55.601Z,5.22
2017-03-25T06:41:36.115Z,5.25
2017-03-25T06:42:16.632Z,5.28
2017-03-25T06:42:57.155Z,5.24
2017-03-25T06:43:37.670Z,5.36
2017-03-25T06:44:18.206Z,5.35
2017-03-25T06:44:58.813Z,5.3
2017-03-25T06:45:39.244Z,5.31
2017-03-25T06:46:19.776Z,5.31
2017-03-25T06:47:00.303Z,5.46
2017-03-25T06:47:40.860Z,5.45
2017-03-25T06:48:21.387Z,5.46
2017-03-25T06:49:01.871Z,5.43
2017-03-25T06:49:42.424Z,5.43
2017-03-25T06:50:22.956Z,5.48
2017-03-25T06:51:03.467Z,5.46
2017-03-25T06:51:44.112Z,5.45
2017-03-25T06:52:24.831Z,5.56
2017-03-25T06:53:05.363Z,5.57
2017-03-25T06:53:45.911Z,5.48
2017-03-25T06:54:26.444Z,5.57
2017-03-25T06:55:06.958Z,5.58
2017-03-25T06:55:47.476Z,5.6
2017-03-25T06:56:27.995Z,5.61
2017-03-25T06:57:08.504Z,5.71
2017-03-25T06:57:49.023Z,5.72
2017-03-25T06:58:29.542Z,5.67
2017-03-25T06:59:10.069Z,5.65
2017-03-25T06:59:50.601Z,5.63
2017-03-25T07:00:31.138Z,5.6
2017-03-25T07:01:11.665Z,5.71
2017-03-25T07:01:52.196Z,5.75
2017-03-25T07:02:32.725Z,5.71
2017-03-25T07:03:13.244Z,5.79
2017-03-25T07:03:53.789Z,5.82
2017-03-25T07:04:34.296Z,5.79
2017-03-25T07:05:14.849Z,5.85
2017-03-25T07:05:55.366Z,5.94
2017-03-25T07:06:35.888Z,5.93
2017-03-25T07:07:16.414Z,6
2017-03-25T07:07:56.922Z,6
2017-03-25T07:08:37.436Z,6.08
2017-03-25T07:09:17.938Z,5.97
2017-03-25T07:09:58.462Z,6.11
2017-03-25T07:10:38.991Z,6.12
2017-03-25T07:11:19.530Z,6.18
2017-03-25T07:12:00.040Z,6.17
2017-03-25T07:12:40.559Z,6.21
2017-03-25T07:13:21.127Z,6.28
2017-03-25T07:14:01.658Z,6.31
2017-03-25T07:14:42.178Z,6.31
2017-03-25T07:15:22.714Z,6.27
2017-03-25T07:16:03.223Z,6.36
2017-03-25T07:16:43.736Z,6.44
2017-03-25T07:17:24.262Z,6.41
2017-03-25T07:18:04.769Z,6.44
2017-03-25T07:18:45.343Z,6.52
2017-03-25T07:19:25.872Z,6.54
2017-03-25T07:20:06.382Z,6.61
2017-03-25T07:20:46.938Z,6.64
2017-03-25T07:21:27.458Z,6.7
2017-03-25T07:22:07.995Z,6.7
2017-03-25T07:22:48.514Z,6.77
2017-03-25T07:23:29.053Z,6.85
2017-03-25T07:24:09.723Z,6.91
2017-03-25T07:24:50.160Z,6.95
2017-03-25T07:25:30.693Z,6.95
2017-03-25T07:26:11.217Z,6.99
2017-03-25T07:26:51.751Z,7.02
2017-03-25T07:27:32.266Z,7.09
2017-03-25T07:28:12.805Z,7.05
2017-03-25T07:28:53.366Z,7.13
2017-03-25T07:29:33.893Z,7.23
2017-03-25T07:30:14.416Z,7.23
2017-03-25T07:30:54.939Z,7.21
2017-03-25T07:31:35.447Z,7.35
2017-03-25T07:32:15.977Z,7.31
2017-03-25T07:32:56.516Z,7.3
2017-03-25T07:33:36.989Z,7.31
2017-03-25T07:34:17.550Z,7.45
2017-03-25T07:34:58.061Z,7.49
2017-03-25T07:35:38.582Z,7.42
2017-03-25T07:36:19.117Z,7.5
2017-03-25T07:36:59.639Z,7.53
2017-03-25T07:37:40.169Z,7.52
2017-03-25T07:38:20.690Z,7.61
2017-03-25T07:39:01.201Z,7.6
2017-03-25T07:39:41.705Z,7.71
2017-03-25T07:40:22.219Z,7.68
2017-03-25T07:41:02.749Z,7.75
2017-03-25T07:41:43.265Z,7.69
2017-03-25T07:42:23.832Z,7.77
2017-03-25T07:43:04.317Z,7.83
2017-03-25T07:43:44.853Z,7.87
2017-03-25T07:44:25.366Z,7.82
2017-03-25T07:45:05.878Z,7.87
2017-03-25T07:45:46.403Z,7.89
2017-03-25T07:46:26.936Z,7.89
2017-03-25T07:47:07.467Z,7.9
2017-03-25T07:47:47.942Z,7.98
2017-03-25T07:48:28.512Z,7.87
2017-03-25T07:49:09.076Z,7.9
2017-03-25T07:49:49.582Z,7.97
2017-03-25T07:50:30.079Z,8
2017-03-25T07:51:10.600Z,8.07
2017-03-25T07:51:51.098Z,8.12
2017-03-25T07:52:31.611Z,8.07
2017-03-25T07:53:12.120Z,8.15
2017-03-25T07:53:52.659Z,8.11
2017-03-25T07:54:33.162Z,8.16
2017-03-25T07:55:13.656Z,8.11
2017-03-25T07:55:54.155Z,8.2
2017-03-25T07:56:34.669Z,8.26
2017-03-25T07:57:15.194Z,8.29
2017-03-25T07:57:55.710Z,8.33
2017-03-25T07:58:36.264Z,8.34
2017-03-25T07:59:16.761Z,8.36
2017-03-25T07:59:57.295Z,8.41
2017-03-25T08:00:37.816Z,8.41
2017-03-25T08:01:18.354Z,8.5
2017-03-25T08:01:58.886Z,8.5
2017-03-25T08:02:39.376Z,8.58
2017-03-25T08:03:19.904Z,8.5
2017-03-25T08:04:00.410Z,8.53
2017-03-25T08:04:40.927Z,8.66
2017-03-25T08:05:21.449Z,8.62
2017-03-25T08:06:01.995Z,8.66
2017-03-25T08:06:42.511Z,8.79
2017-03-25T08:07:23.029Z,8.65
2017-03-25T08:08:03.538Z,8.76
2017-03-25T08:08:44.062Z,8.68
2017-03-25T08:09:24.584Z,8.76
2017-03-25T08:10:05.102Z,8.76
2017-03-25T08:10:45.616Z,8.76
2017-03-25T08:11:26.128Z,8.87
2017-03-25T08:12:06.651Z,8.95
2017-03-25T08:12:47.201Z,8.91
2017-03-25T08:13:27.702Z,8.92
2017-03-25T08:14:08.226Z,9.11
2017-03-25T08:14:48.738Z,9.04
2017-03-25T08:15:29.257Z,9.02
2017-03-25T08:16:09.789Z,9.23
2017-03-25T08:16:50.298Z,9.26
2017-03-25T08:17:30.825Z,9.26
2017-03-25T08:18:11.329Z,9.28
2017-03-25T08:18:51.832Z,9.33
2017-03-25T08:19:32.348Z,9.39
2017-03-25T08:20:12.850Z,9.38
2017-03-25T08:20:53.394Z,9.51
2017-03-25T08:21:33.919Z,9.5
2017-03-25T08:22:14.439Z,9.66
2017-03-25T08:22:54.948Z,9.68
2017-03-25T08:23:35.492Z,9.68
2017-03-25T08:24:15.998Z,9.71
2017-03-25T08:24:56.515Z,9.74
2017-03-25T08:25:37.043Z,9.83
2017-03-25T08:26:17.585Z,9.79
2017-03-25T08:26:58.086Z,9.86
2017-03-25T08:27:38.603Z,9.9
2017-03-25T08:28:19.134Z,9.9
2017-03-25T08:28:59.684Z,9.99
2017-03-25T08:29:40.163Z,10.02
2017-03-25T08:30:20.695Z,10.15
2017-03-25T08:31:01.196Z,10.17
2017-03-25T08:31:41.736Z,10.23
2017-03-25T08:32:22.234Z,10.27
2017-03-25T08:33:02.765Z,10.29
2017-03-25T08:33:43.304Z,10.44
2017-03-25T08:34:23.856Z,10.51
2017-03-25T08:35:04.353Z,10.64
2017-03-25T08:35:44.862Z,10.66
2017-03-25T08:36:25.420Z,10.66
2017-03-25T08:37:05.955Z,10.73
2017-03-25T08:37:46.461Z,10.76
2017-03-25T08:38:27.110Z,10.82
2017-03-25T08:39:07.596Z,10.86
2017-03-25T08:39:48.135Z,10.85
2017-03-25T08:40:28.646Z,11.03
2017-03-25T08:41:09.176Z,11.06
2017-03-25T08:41:49.712Z,11.22
2017-03-25T08:42:30.240Z,11.22
2017-03-25T08:43:10.786Z,11.32
2017-03-25T08:43:51.348Z,11.29
2017-03-25T08:44:31.890Z,11.42
2017-03-25T08:45:12.438Z,11.51
2017-03-25T08:45:52.986Z,11.54
2017-03-25T08:46:33.506Z,11.65
2017-03-25T08:47:14.025Z,11.7
2017-03-25T08:47:54.528Z,11.69
2017-03-25T08:48:35.044Z,11.72
2017-03-25T08:49:15.578Z,11.83
2017-03-25T08:49:56.081Z,11.88
2017-03-25T08:50:36.610Z,11.91
2017-03-25T08:51:17.123Z,12.07
2017-03-25T08:51:57.640Z,12.07
2017-03-25T08:52:38.164Z,12.05
2017-03-25T08:53:18.699Z,12.19
2017-03-25T08:53:59.217Z,12.23
2017-03-25T08:54:39.755Z,12.38
2017-03-25T08:55:20.286Z,12.31
2017-03-25T08:56:00.828Z,12.45
2017-03-25T08:56:41.357Z,12.5
2017-03-25T08:57:21.873Z,12.47
2017-03-25T08:58:02.498Z,12.59
2017-03-25T08:58:43.013Z,12.6
2017-03-25T08:59:23.534Z,12.65
2017-03-25T09:00:04.188Z,12.78
2017-03-25T09:00:44.718Z,12.85
2017-03-25T09:01:25.226Z,12.96